Time;durP1;ratioP1;P1;durP2;ratioP2;P2;SDS_P1;SDS_P2;PMS_P1;PMS_P2;Temp;Humidity;BMP_temperature;BMP_pressure;BME280_temperature;BME280_humidity;BME280_pressure;Samples;Min_cycle;Max_cycle;Signal;HPM_P1;HPM_P2
2022/10/10 00:00:32;;;;;;;4.90;2.60;;;;;;;;;;5094808;28;20660;-60
2022/10/10 00:02:59;;;;;;;4.55;2.95;;;;;;;;;;5095011;28;20453;-60
2022/10/10 00:05:26;;;;;;;2.47;2.20;;;;;;;;;;5094897;28;20192;-60
2022/10/10 00:07:53;;;;;;;4.43;3.00;;;;;;;;;;5095331;28;20446;-60
2022/10/10 00:10:20;;;;;;;6.78;3.13;;;;;;;;;;5094616;28;20232;-60
2022/10/10 00:12:47;;;;;;;5.57;3.30;;;;;;;;;;5094903;28;20279;-60
2022/10/10 00:15:14;;;;;;;4.63;3.42;;;;;;;;;;5094762;28;20220;-60
2022/10/10 00:17:43;;;;;;;9.50;3.83;;;;;;;;;;5094666;28;20216;-60
2022/10/10 00:20:10;;;;;;;4.22;3.78;;;;;;;;;;5094517;28;20554;-60
2022/10/10 00:22:37;;;;;;;4.80;3.00;;;;;;;;;;5094467;28;20196;-60
2022/10/10 00:25:04;;;;;;;5.38;3.42;;;;;;;;;;5094701;28;20544;-60
2022/10/10 00:27:31;;;;;;;8.33;3.23;;;;;;;;;;5093289;28;20199;-60
2022/10/10 00:29:58;;;;;;;6.13;3.17;;;;;;;;;;5094432;28;20443;-60
2022/10/10 00:32:26;;;;;;;10.68;3.83;;;;;;;;;;5094283;28;20992;-60
2022/10/10 00:34:54;;;;;;;7.30;2.50;;;;;;;;;;5094225;28;20313;-60
2022/10/10 00:37:21;;;;;;;4.10;2.83;;;;;;;;;;5094129;28;20446;-60
2022/10/10 00:39:48;;;;;;;10.18;3.15;;;;;;;;;;5094268;28;20875;-60
2022/10/10 00:42:16;;;;;;;5.50;2.83;;;;;;;;;;5094330;28;20276;-60
2022/10/10 00:44:44;;;;;;;4.80;2.92;;;;;;;;;;5094203;28;20807;-60
2022/10/10 00:47:11;;;;;;;5.45;3.50;;;;;;;;;;5093855;28;20219;-60
2022/10/10 00:49:39;;;;;;;7.57;3.20;;;;;;;;;;5093919;28;20280;-60
2022/10/10 00:52:09;;;;;;;5.70;3.43;;;;;;;;;;5094149;28;20487;-60
2022/10/10 00:54:36;;;;;;;7.63;2.57;;;;;;;;;;5094050;28;20887;-60
2022/10/10 00:57:05;;;;;;;4.75;2.50;;;;;;;;;;5093968;28;20453;-60
2022/10/10 00:59:34;;;;;;;4.80;2.60;;;;;;;;;;5093880;28;20283;-60
2022/10/10 01:02:01;;;;;;;9.27;2.70;;;;;;;;;;5093803;28;20809;-60
2022/10/10 01:04:32;;;;;;;2.97;2.70;;;;;;;;;;5093698;28;20198;-60
2022/10/10 01:07:00;;;;;;;7.50;2.60;;;;;;;;;;5093811;28;20450;-60
2022/10/10 01:09:29;;;;;;;4.18;3.08;;;;;;;;;;5093736;28;20451;-60
2022/10/10 01:11:59;;;;;;;5.25;2.92;;;;;;;;;;5093716;28;20275;-60
2022/10/10 01:14:31;;;;;;;6.45;2.92;;;;;;;;;;5093560;28;20220;-60
2022/10/10 01:17:00;;;;;;;7.57;3.05;;;;;;;;;;5093539;28;20188;-60
2022/10/10 01:19:45;;;;;;;7.07;3.80;;;;;;;;;;5093631;28;20192;-60
2022/10/10 01:22:21;;;;;;;2.75;2.47;;;;;;;;;;5083353;28;20228;-60
2022/10/10 01:24:55;;;;;;;7.85;3.05;;;;;;;;;;5093494;28;20571;-60
2022/10/10 01:27:26;;;;;;;9.27;3.28;;;;;;;;;;5093545;28;20189;-60
2022/10/10 01:29:56;;;;;;;3.70;2.33;;;;;;;;;;5093406;28;20196;-60
2022/10/10 01:32:27;;;;;;;3.40;2.55;;;;;;;;;;5093479;28;20588;-60
2022/10/10 01:34:58;;;;;;;5.78;3.28;;;;;;;;;;5093405;28;20211;-60
2022/10/10 01:37:28;;;;;;;4.63;2.50;;;;;;;;;;5093413;28;20275;-60
2022/10/10 01:40:08;;;;;;;4.97;3.40;;;;;;;;;;5092769;28;20538;-60
2022/10/10 01:42:38;;;;;;;3.60;3.20;;;;;;;;;;5093444;28;20477;-60
2022/10/10 01:45:07;;;;;;;3.92;3.28;;;;;;;;;;5093255;28;20545;-61
2022/10/10 01:47:34;;;;;;;2.90;2.50;;;;;;;;;;5093043;28;20224;-60
2022/10/10 01:50:03;;;;;;;2.67;2.17;;;;;;;;;;5092996;28;20199;-61
2022/10/10 01:52:36;;;;;;;4.75;2.53;;;;;;;;;;5093339;28;20559;-60
2022/10/10 01:55:21;;;;;;;3.15;2.65;;;;;;;;;;5093134;28;20220;-61
2022/10/10 01:57:55;;;;;;;3.25;2.85;;;;;;;;;;5093173;28;20279;-60
2022/10/10 02:00:24;;;;;;;6.07;3.53;;;;;;;;;;5092933;28;20705;-60
2022/10/10 02:02:54;;;;;;;8.20;2.78;;;;;;;;;;5093197;28;20199;-60
2022/10/10 02:05:25;;;;;;;7.32;3.80;;;;;;;;;;5093127;28;20275;-60
2022/10/10 02:07:54;;;;;;;15.95;3.53;;;;;;;;;;5092938;28;20725;-60
2022/10/10 02:10:22;;;;;;;4.10;2.85;;;;;;;;;;5092940;28;20190;-60
2022/10/10 02:12:49;;;;;;;3.40;3.03;;;;;;;;;;5092954;28;20200;-60
2022/10/10 02:15:19;;;;;;;4.25;2.45;;;;;;;;;;5092716;28;20545;-60
2022/10/10 02:17:48;;;;;;;3.67;3.00;;;;;;;;;;5093053;28;20662;-60
2022/10/10 02:20:18;;;;;;;3.85;2.90;;;;;;;;;;5092951;28;20225;-60
2022/10/10 02:22:45;;;;;;;3.80;2.63;;;;;;;;;;5092900;28;20188;-60
2022/10/10 02:25:13;;;;;;;5.22;2.90;;;;;;;;;;5092858;28;20717;-60
2022/10/10 02:27:43;;;;;;;4.05;2.85;;;;;;;;;;5092679;28;20193;-61
2022/10/10 02:30:11;;;;;;;4.25;2.80;;;;;;;;;;5092621;28;20648;-61
2022/10/10 02:32:40;;;;;;;7.25;2.80;;;;;;;;;;5092870;28;20195;-61
2022/10/10 02:35:09;;;;;;;5.82;3.05;;;;;;;;;;5092840;28;20208;-60
2022/10/10 02:37:37;;;;;;;5.10;3.28;;;;;;;;;;5092769;28;20198;-60
2022/10/10 02:40:06;;;;;;;3.50;3.20;;;;;;;;;;5092573;28;20278;-60
2022/10/10 02:42:34;;;;;;;4.45;2.65;;;;;;;;;;5092848;28;20193;-60
2022/10/10 02:45:02;;;;;;;3.20;2.75;;;;;;;;;;5092774;28;20524;-61
2022/10/10 02:47:29;;;;;;;3.20;2.70;;;;;;;;;;5092641;28;20224;-61
2022/10/10 02:49:56;;;;;;;10.65;2.85;;;;;;;;;;5092629;28;20547;-60
2022/10/10 02:52:24;;;;;;;2.85;2.15;;;;;;;;;;5095929;28;20647;-60
2022/10/10 02:54:51;;;;;;;6.63;2.70;;;;;;;;;;5096151;28;20545;-60
2022/10/10 02:57:18;;;;;;;7.18;2.65;;;;;;;;;;5096432;28;20186;-60
2022/10/10 02:59:45;;;;;;;5.57;3.40;;;;;;;;;;5096296;28;20211;-60
2022/10/10 03:02:12;;;;;;;6.40;2.75;;;;;;;;;;5096211;28;20279;-60
2022/10/10 03:04:39;;;;;;;4.43;3.10;;;;;;;;;;5096135;28;20200;-60
2022/10/10 03:07:06;;;;;;;4.93;2.85;;;;;;;;;;5095986;28;20198;-60
2022/10/10 03:09:34;;;;;;;3.30;2.72;;;;;;;;;;5095899;28;20277;-60
2022/10/10 03:12:01;;;;;;;4.85;2.80;;;;;;;;;;5096036;28;20590;-60
2022/10/10 03:14:28;;;;;;;2.88;2.67;;;;;;;;;;5095732;28;20726;-60
2022/10/10 03:16:55;;;;;;;7.00;4.05;;;;;;;;;;5095887;28;20280;-60
2022/10/10 03:19:22;;;;;;;4.30;3.80;;;;;;;;;;5095710;28;20230;-60
2022/10/10 03:21:49;;;;;;;5.45;4.15;;;;;;;;;;5095578;28;20229;-60
2022/10/10 03:24:15;;;;;;;5.95;4.10;;;;;;;;;;5095836;28;20225;-60
2022/10/10 03:26:44;;;;;;;5.40;3.30;;;;;;;;;;5095722;28;20193;-60
2022/10/10 03:29:11;;;;;;;4.30;3.28;;;;;;;;;;5095530;28;20195;-60
2022/10/10 03:31:38;;;;;;;9.73;5.20;;;;;;;;;;5095504;28;20192;-60
2022/10/10 03:34:04;;;;;;;5.50;4.10;;;;;;;;;;5095508;28;20254;-60
2022/10/10 03:36:31;;;;;;;6.00;3.60;;;;;;;;;;5095293;28;20216;-60
2022/10/10 03:38:58;;;;;;;5.07;3.85;;;;;;;;;;5095510;28;20197;-60
2022/10/10 03:41:25;;;;;;;6.25;3.97;;;;;;;;;;5095463;28;20189;-60
2022/10/10 03:43:53;;;;;;;8.77;4.22;;;;;;;;;;5095366;28;20185;-60
2022/10/10 03:46:20;;;;;;;5.95;3.42;;;;;;;;;;5095283;28;20549;-60
2022/10/10 03:48:47;;;;;;;4.68;3.58;;;;;;;;;;5094969;28;20227;-60
2022/10/10 03:51:14;;;;;;;6.75;4.03;;;;;;;;;;5095348;28;20190;-60
2022/10/10 03:53:41;;;;;;;6.40;3.70;;;;;;;;;;5095245;28;20193;-60
2022/10/10 03:56:08;;;;;;;7.45;3.85;;;;;;;;;;5095072;28;20226;-61
2022/10/10 03:58:35;;;;;;;13.73;4.40;;;;;;;;;;5095023;28;20191;-60
2022/10/10 04:01:04;;;;;;;12.68;4.25;;;;;;;;;;5094962;28;20199;-61
2022/10/10 04:03:31;;;;;;;9.73;4.00;;;;;;;;;;5094632;28;20223;-60
2022/10/10 04:05:58;;;;;;;8.18;3.47;;;;;;;;;;5095131;28;20189;-61
2022/10/10 04:08:27;;;;;;;8.05;4.70;;;;;;;;;;5094957;28;20283;-60
2022/10/10 04:10:55;;;;;;;8.63;4.05;;;;;;;;;;5094908;28;20706;-60
2022/10/10 04:13:22;;;;;;;7.60;3.38;;;;;;;;;;5094722;28;20284;-60
2022/10/10 04:15:50;;;;;;;14.18;5.15;;;;;;;;;;5094497;28;20218;-61
2022/10/10 04:18:19;;;;;;;7.85;4.20;;;;;;;;;;5094838;28;20186;-60
2022/10/10 04:20:46;;;;;;;8.30;3.97;;;;;;;;;;5094763;28;20192;-61
2022/10/10 04:23:13;;;;;;;4.18;3.72;;;;;;;;;;5094638;28;20279;-60
2022/10/10 04:25:40;;;;;;;10.23;4.50;;;;;;;;;;5094512;28;20295;-60
2022/10/10 04:28:07;;;;;;;10.77;4.68;;;;;;;;;;5094503;28;20199;-61
2022/10/10 04:30:35;;;;;;;6.72;4.10;;;;;;;;;;5094287;28;20548;-60
2022/10/10 04:33:02;;;;;;;7.10;4.38;;;;;;;;;;5094527;28;20613;-60
2022/10/10 04:35:30;;;;;;;8.75;4.78;;;;;;;;;;5094366;28;20299;-60
2022/10/10 04:37:57;;;;;;;8.45;3.97;;;;;;;;;;5094232;28;20287;-60
2022/10/10 04:40:24;;;;;;;15.90;4.43;;;;;;;;;;5094181;28;20282;-61
2022/10/10 04:42:51;;;;;;;11.20;4.78;;;;;;;;;;5094178;28;20283;-61
2022/10/10 04:45:18;;;;;;;8.48;4.43;;;;;;;;;;5094054;28;20199;-60
2022/10/10 04:47:45;;;;;;;5.78;4.38;;;;;;;;;;5093969;28;20611;-61
2022/10/10 04:50:12;;;;;;;5.43;4.65;;;;;;;;;;5094018;28;20194;-60
2022/10/10 04:52:40;;;;;;;5.70;4.53;;;;;;;;;;5094048;28;20640;-60
2022/10/10 04:55:07;;;;;;;4.78;3.63;;;;;;;;;;5093761;28;20266;-60
2022/10/10 04:57:34;;;;;;;8.82;4.22;;;;;;;;;;5093789;28;20219;-61
2022/10/10 05:00:01;;;;;;;4.60;4.10;;;;;;;;;;5093922;28;20600;-60
2022/10/10 05:02:28;;;;;;;4.47;4.07;;;;;;;;;;5093931;28;20598;-60
2022/10/10 05:04:55;;;;;;;5.40;4.90;;;;;;;;;;5093840;28;20276;-60
2022/10/10 05:07:22;;;;;;;11.90;4.07;;;;;;;;;;5093856;28;20279;-60
2022/10/10 05:09:51;;;;;;;4.50;4.00;;;;;;;;;;5093953;28;20189;-59
2022/10/10 05:12:18;;;;;;;11.73;5.07;;;;;;;;;;5093461;28;20596;-60
2022/10/10 05:14:45;;;;;;;5.20;4.30;;;;;;;;;;5093028;28;20887;-60
2022/10/10 05:17:12;;;;;;;8.63;4.55;;;;;;;;;;5093541;28;20216;-59
2022/10/10 05:19:38;;;;;;;13.55;4.75;;;;;;;;;;5093524;28;20259;-59
2022/10/10 05:22:05;;;;;;;11.65;5.55;;;;;;;;;;5093513;28;20188;-59
2022/10/10 05:24:33;;;;;;;11.60;4.70;;;;;;;;;;5093373;28;20192;-60
2022/10/10 05:27:01;;;;;;;10.32;3.92;;;;;;;;;;5093147;28;20249;-60
2022/10/10 05:29:28;;;;;;;9.93;4.88;;;;;;;;;;5093506;28;20211;-59
2022/10/10 05:31:55;;;;;;;11.32;4.78;;;;;;;;;;5093395;28;20216;-60
2022/10/10 05:34:22;;;;;;;7.43;4.70;;;;;;;;;;5093125;28;20672;-59
2022/10/10 05:36:49;;;;;;;9.00;4.70;;;;;;;;;;5092947;28;20699;-59
2022/10/10 05:39:16;;;;;;;9.05;5.25;;;;;;;;;;5093077;28;20280;-59
2022/10/10 05:41:42;;;;;;;9.07;4.88;;;;;;;;;;5093333;28;20271;-59
2022/10/10 05:44:11;;;;;;;7.50;4.43;;;;;;;;;;5093225;28;20203;-59
2022/10/10 05:46:38;;;;;;;6.25;4.22;;;;;;;;;;5092984;28;20559;-60
2022/10/10 05:49:05;;;;;;;7.07;4.60;;;;;;;;;;5092847;28;20546;-59
2022/10/10 05:51:32;;;;;;;10.13;5.40;;;;;;;;;;5092885;28;20224;-59
2022/10/10 05:53:59;;;;;;;7.07;5.75;;;;;;;;;;5092846;28;20281;-59
2022/10/10 05:56:26;;;;;;;10.00;5.50;;;;;;;;;;5092985;28;20220;-60
2022/10/10 05:58:53;;;;;;;7.38;4.55;;;;;;;;;;5092945;28;20191;-60
2022/10/10 06:01:21;;;;;;;13.15;5.10;;;;;;;;;;5092874;28;20571;-59
2022/10/10 06:03:51;;;;;;;9.90;5.28;;;;;;;;;;5092840;28;20188;-60
2022/10/10 06:06:18;;;;;;;10.10;6.00;;;;;;;;;;5092823;28;20203;-60
2022/10/10 06:08:45;;;;;;;10.50;5.75;;;;;;;;;;5092732;28;20245;-60
2022/10/10 06:11:14;;;;;;;12.35;5.63;;;;;;;;;;5093124;28;20619;-60
2022/10/10 06:13:41;;;;;;;14.35;5.72;;;;;;;;;;5092928;28;20196;-60
2022/10/10 06:16:08;;;;;;;8.45;5.28;;;;;;;;;;5092891;28;20204;-60
2022/10/10 06:18:36;;;;;;;10.55;5.85;;;;;;;;;;5092708;28;20188;-60
2022/10/10 06:21:04;;;;;;;7.70;5.05;;;;;;;;;;5092699;28;20192;-60
2022/10/10 06:23:31;;;;;;;8.27;5.22;;;;;;;;;;5092917;28;20575;-60
2022/10/10 06:25:58;;;;;;;11.50;5.80;;;;;;;;;;5095748;28;20195;-59
2022/10/10 06:28:25;;;;;;;11.05;5.85;;;;;;;;;;5096639;28;20185;-59
2022/10/10 06:30:52;;;;;;;12.05;6.10;;;;;;;;;;5097224;28;20188;-59
2022/10/10 06:33:19;;;;;;;7.93;6.10;;;;;;;;;;5096547;28;20234;-59
2022/10/10 06:35:48;;;;;;;7.30;5.22;;;;;;;;;;5096244;28;20218;-59
2022/10/10 06:38:15;;;;;;;9.63;6.70;;;;;;;;;;5096423;28;20696;-59
2022/10/10 06:40:43;;;;;;;5.90;4.88;;;;;;;;;;5096609;28;20284;-59
2022/10/10 06:43:11;;;;;;;11.65;5.50;;;;;;;;;;5096511;28;20202;-59
2022/10/10 06:45:38;;;;;;;11.02;5.93;;;;;;;;;;5096358;28;20192;-59
2022/10/10 06:48:05;;;;;;;6.07;4.60;;;;;;;;;;5096065;28;20243;-60
2022/10/10 06:50:32;;;;;;;5.57;4.75;;;;;;;;;;5096346;28;20192;-61
2022/10/10 06:53:00;;;;;;;7.13;4.35;;;;;;;;;;5096370;28;20272;-60
2022/10/10 06:55:27;;;;;;;9.77;3.97;;;;;;;;;;5096333;28;20192;-60
2022/10/10 06:57:54;;;;;;;5.32;4.05;;;;;;;;;;5096088;28;20271;-59
2022/10/10 07:00:21;;;;;;;4.47;3.80;;;;;;;;;;5095928;28;20188;-60
2022/10/10 07:02:48;;;;;;;3.80;3.50;;;;;;;;;;5095864;28;20883;-60
2022/10/10 07:05:16;;;;;;;5.80;4.13;;;;;;;;;;5085160;28;20447;-61
2022/10/10 07:07:43;;;;;;;4.30;3.10;;;;;;;;;;5084496;28;20881;-61
2022/10/10 07:10:12;;;;;;;9.40;4.60;;;;;;;;;;5085078;28;20870;-59
2022/10/10 07:12:39;;;;;;;7.53;3.93;;;;;;;;;;5099237;28;20533;-59
2022/10/10 07:15:07;;;;;;;8.27;3.57;;;;;;;;;;5081950;28;20505;-59
2022/10/10 07:17:34;;;;;;;5.50;3.80;;;;;;;;;;5080767;28;20569;-60
2022/10/10 07:20:01;;;;;;;5.37;3.17;;;;;;;;;;5075785;28;20501;-61
2022/10/10 07:22:28;;;;;;;6.40;3.35;;;;;;;;;;5078787;28;21002;-58
2022/10/10 07:24:55;;;;;;;6.25;3.88;;;;;;;;;;5077097;28;20267;-58
2022/10/10 07:27:23;;;;;;;5.03;3.10;;;;;;;;;;5083957;28;20191;-60
2022/10/10 07:29:50;;;;;;;4.35;2.75;;;;;;;;;;5095387;28;20870;-55
2022/10/10 07:32:17;;;;;;;4.97;3.30;;;;;;;;;;5087906;28;20192;-51
2022/10/10 07:34:44;;;;;;;7.47;3.10;;;;;;;;;;5074955;28;20456;-53
2022/10/10 07:37:11;;;;;;;4.00;3.30;;;;;;;;;;5083019;28;20841;-59
2022/10/10 07:39:38;;;;;;;10.10;2.80;;;;;;;;;;5095241;28;20453;-59
2022/10/10 07:42:04;;;;;;;2.90;2.60;;;;;;;;;;5090834;28;21042;-59
2022/10/10 07:44:33;;;;;;;3.20;2.47;;;;;;;;;;5075007;28;20526;-59
2022/10/10 07:47:00;;;;;;;10.07;3.70;;;;;;;;;;5074016;28;20541;-59
2022/10/10 07:49:27;;;;;;;4.60;3.03;;;;;;;;;;5092710;28;20496;-59
2022/10/10 07:51:54;;;;;;;5.07;3.00;;;;;;;;;;5093327;28;20457;-57
2022/10/10 07:54:21;;;;;;;3.23;2.60;;;;;;;;;;5092573;28;20443;-56
2022/10/10 07:56:47;;;;;;;3.60;3.07;;;;;;;;;;5074006;28;20475;-56
2022/10/10 07:59:14;;;;;;;5.90;3.50;;;;;;;;;;5073277;28;20476;-58
2022/10/10 08:01:43;;;;;;;2.70;2.50;;;;;;;;;;5087251;28;20189;-56
2022/10/10 08:04:10;;;;;;;8.60;3.87;;;;;;;;;;5074060;28;20546;-59
2022/10/10 08:06:36;;;;;;;9.03;3.87;;;;;;;;;;5073079;28;20458;-59
2022/10/10 08:09:03;;;;;;;4.67;2.57;;;;;;;;;;5073203;28;20522;-59
2022/10/10 08:11:30;;;;;;;4.33;2.60;;;;;;;;;;5073772;28;20451;-58
2022/10/10 08:13:57;;;;;;;5.60;2.90;;;;;;;;;;5073540;28;20443;-59
2022/10/10 08:16:24;;;;;;;3.33;2.90;;;;;;;;;;5073657;28;20477;-58
2022/10/10 08:18:53;;;;;;;4.63;2.53;;;;;;;;;;5073719;28;20970;-59
2022/10/10 08:21:20;;;;;;;4.37;3.30;;;;;;;;;;5075094;28;20181;-59
2022/10/10 08:23:47;;;;;;;3.40;2.57;;;;;;;;;;5074161;28;20455;-59
2022/10/10 08:26:14;;;;;;;3.93;2.60;;;;;;;;;;5078847;28;20545;-53
2022/10/10 08:28:42;;;;;;;2.50;2.30;;;;;;;;;;5078322;28;20487;-57
2022/10/10 08:31:10;;;;;;;4.80;2.72;;;;;;;;;;5073239;28;20795;-58
2022/10/10 08:33:37;;;;;;;4.00;3.50;;;;;;;;;;5073016;28;20193;-58
2022/10/10 08:36:09;;;;;;;3.63;2.43;;;;;;;;;;5073318;28;22589;-59
2022/10/10 08:38:36;;;;;;;4.83;2.60;;;;;;;;;;5072149;28;20563;-60
2022/10/10 08:41:07;;;;;;;4.13;2.50;;;;;;;;;;5072860;28;20546;-59
2022/10/10 08:43:39;;;;;;;6.00;2.57;;;;;;;;;;5079678;28;20446;-59
2022/10/10 08:46:09;;;;;;;4.57;2.30;;;;;;;;;;5091924;28;20446;-60
2022/10/10 08:48:36;;;;;;;2.47;2.27;;;;;;;;;;5071805;28;20484;-60
2022/10/10 08:51:07;;;;;;;2.70;2.00;;;;;;;;;;5073151;28;20895;-61
2022/10/10 08:53:36;;;;;;;4.23;1.93;;;;;;;;;;5073769;28;20534;-58
2022/10/10 08:56:05;;;;;;;5.77;2.30;;;;;;;;;;5073722;28;20835;-59
2022/10/10 08:58:34;;;;;;;4.63;2.33;;;;;;;;;;5073573;28;20818;-57
2022/10/10 09:01:04;;;;;;;4.30;2.20;;;;;;;;;;5078161;28;20461;-62
2022/10/10 09:03:34;;;;;;;7.15;2.75;;;;;;;;;;5073366;28;20565;-59
2022/10/10 09:06:05;;;;;;;11.67;2.80;;;;;;;;;;5073394;28;20276;-59
2022/10/10 09:08:40;;;;;;;3.70;2.20;;;;;;;;;;5073059;28;20455;-58
2022/10/10 09:11:10;;;;;;;7.50;2.60;;;;;;;;;;5073289;28;20955;-59
2022/10/10 09:13:39;;;;;;;3.00;2.37;;;;;;;;;;5073158;28;20566;-60
2022/10/10 09:16:08;;;;;;;7.15;2.40;;;;;;;;;;5075977;28;20538;-60
2022/10/10 09:18:47;;;;;;;2.67;1.93;;;;;;;;;;5097409;28;20223;-60
2022/10/10 09:21:16;;;;;;;2.30;2.10;;;;;;;;;;5093782;28;20542;-61
2022/10/10 09:23:46;;;;;;;3.60;2.70;;;;;;;;;;5073171;28;20496;-57
2022/10/10 09:26:15;;;;;;;3.60;2.37;;;;;;;;;;5073124;28;20490;-59
2022/10/10 09:28:44;;;;;;;2.50;2.30;;;;;;;;;;5072983;28;20447;-58
2022/10/10 09:31:15;;;;;;;6.43;2.07;;;;;;;;;;5073135;28;20501;-58
2022/10/10 09:33:43;;;;;;;6.60;2.33;;;;;;;;;;5073026;28;20451;-58
2022/10/10 09:36:13;;;;;;;4.63;2.50;;;;;;;;;;5073031;28;20542;-57
2022/10/10 09:38:43;;;;;;;2.10;1.90;;;;;;;;;;5072934;28;20478;-58
2022/10/10 09:41:15;;;;;;;4.47;2.53;;;;;;;;;;5072969;28;20469;-58
2022/10/10 09:43:42;;;;;;;2.90;2.00;;;;;;;;;;5073109;28;20480;-57
2022/10/10 09:46:09;;;;;;;3.10;2.10;;;;;;;;;;5072973;28;20538;-58
2022/10/10 09:48:37;;;;;;;2.65;2.25;;;;;;;;;;5080367;28;20831;-58
2022/10/10 09:51:06;;;;;;;5.03;2.17;;;;;;;;;;5092373;28;20212;-59
2022/10/10 09:53:33;;;;;;;2.97;2.43;;;;;;;;;;5092452;28;20500;-58
2022/10/10 09:56:00;;;;;;;2.28;1.95;;;;;;;;;;5087523;28;20442;-59
2022/10/10 09:58:33;;;;;;;2.83;1.83;;;;;;;;;;5076562;28;20568;-60
2022/10/10 10:01:15;;;;;;;4.10;2.47;;;;;;;;;;5074837;28;20457;-60
2022/10/10 10:03:42;;;;;;;2.77;2.40;;;;;;;;;;5071961;28;20453;-59
2022/10/10 10:06:12;;;;;;;9.30;2.77;;;;;;;;;;5073604;28;20941;-60
2022/10/10 10:08:39;;;;;;;2.50;2.13;;;;;;;;;;5072662;28;20454;-60
2022/10/10 10:11:06;;;;;;;3.85;2.70;;;;;;;;;;5072723;28;20444;-59
2022/10/10 10:13:36;;;;;;;2.80;1.90;;;;;;;;;;5072492;28;20263;-59
2022/10/10 10:16:04;;;;;;;4.27;2.50;;;;;;;;;;5074089;28;20447;-60
2022/10/10 10:18:31;;;;;;;3.27;2.37;;;;;;;;;;5075539;28;20481;-59
2022/10/10 10:21:10;;;;;;;2.23;2.10;;;;;;;;;;5090575;28;20443;-61
2022/10/10 10:23:41;;;;;;;3.63;2.37;;;;;;;;;;5089993;28;20793;-60
2022/10/10 10:26:16;;;;;;;4.30;1.70;;;;;;;;;;5087916;28;20549;-61
2022/10/10 10:28:44;;;;;;;2.80;1.70;;;;;;;;;;5072040;28;20447;-63
2022/10/10 10:31:16;;;;;;;3.07;1.80;;;;;;;;;;5071865;28;20462;-62
2022/10/10 10:33:49;;;;;;;2.43;1.90;;;;;;;;;;5072165;28;20453;-62
2022/10/10 10:36:24;;;;;;;5.17;1.80;;;;;;;;;;5074870;28;20542;-60
2022/10/10 10:38:57;;;;;;;2.77;2.60;;;;;;;;;;5086563;28;20841;-60
2022/10/10 10:41:28;;;;;;;5.33;3.07;;;;;;;;;;5092372;28;20895;-61
2022/10/10 10:44:08;;;;;;;2.70;1.87;;;;;;;;;;5075774;28;20938;-60
2022/10/10 10:46:41;;;;;;;3.57;2.50;;;;;;;;;;5072289;28;20455;-62
2022/10/10 10:49:11;;;;;;;2.33;1.90;;;;;;;;;;5086912;28;20547;-60
2022/10/10 10:51:48;;;;;;;2.20;2.00;;;;;;;;;;5086745;28;20450;-60
2022/10/10 10:54:22;;;;;;;7.10;3.07;;;;;;;;;;5107821;28;20798;-60
2022/10/10 10:56:52;;;;;;;3.30;2.60;;;;;;;;;;5092628;28;20499;-61
2022/10/10 10:59:28;;;;;;;2.30;2.10;;;;;;;;;;5081313;28;20530;-61
2022/10/10 11:01:58;;;;;;;3.50;2.17;;;;;;;;;;5079599;28;20451;-61
2022/10/10 11:04:34;;;;;;;2.95;1.85;;;;;;;;;;5101630;28;20472;-59
2022/10/10 11:07:06;;;;;;;2.87;2.13;;;;;;;;;;5080017;28;20192;-59
2022/10/10 11:09:34;;;;;;;2.37;2.00;;;;;;;;;;5071031;28;20490;-59
2022/10/10 11:12:05;;;;;;;2.60;2.37;;;;;;;;;;5072936;28;20605;-56
2022/10/10 11:14:42;;;;;;;2.40;2.20;;;;;;;;;;5075599;28;20454;-59
2022/10/10 11:17:13;;;;;;;7.57;2.70;;;;;;;;;;5084758;28;20456;-59
2022/10/10 11:19:42;;;;;;;4.43;2.00;;;;;;;;;;5114780;28;20449;-59
2022/10/10 11:22:10;;;;;;;3.27;1.90;;;;;;;;;;5107694;28;20882;-61
2022/10/10 11:24:42;;;;;;;3.83;2.10;;;;;;;;;;5086073;28;20491;-61
2022/10/10 11:27:11;;;;;;;3.63;2.10;;;;;;;;;;5082089;28;20216;-61
2022/10/10 11:29:47;;;;;;;3.83;1.80;;;;;;;;;;5078542;28;20461;-60
2022/10/10 11:32:17;;;;;;;2.70;2.43;;;;;;;;;;5075489;28;20452;-60
2022/10/10 11:34:49;;;;;;;5.33;2.67;;;;;;;;;;5076324;28;20477;-59
2022/10/10 11:37:18;;;;;;;4.05;2.80;;;;;;;;;;5080910;28;20540;-59
2022/10/10 11:39:46;;;;;;;5.38;2.20;;;;;;;;;;5075907;28;20645;-62
2022/10/10 11:42:15;;;;;;;6.77;2.47;;;;;;;;;;5075309;28;20448;-61
2022/10/10 11:44:46;;;;;;;3.00;2.30;;;;;;;;;;5074850;28;20452;-61
2022/10/10 11:47:15;;;;;;;3.10;2.37;;;;;;;;;;5074526;28;20467;-61
2022/10/10 11:49:47;;;;;;;2.93;2.30;;;;;;;;;;5083842;28;20446;-62
2022/10/10 11:52:17;;;;;;;6.47;2.77;;;;;;;;;;5107372;28;20450;-59
2022/10/10 11:54:46;;;;;;;2.40;2.13;;;;;;;;;;5114822;28;20500;-59
2022/10/10 11:57:15;;;;;;;3.40;2.73;;;;;;;;;;5080321;28;20542;-59
2022/10/10 11:59:46;;;;;;;4.30;1.90;;;;;;;;;;5075822;28;20455;-60
2022/10/10 12:02:17;;;;;;;4.30;2.50;;;;;;;;;;5077217;28;20450;-59
2022/10/10 12:04:44;;;;;;;2.63;2.43;;;;;;;;;;5090090;28;20507;-59
2022/10/10 12:07:14;;;;;;;3.50;2.30;;;;;;;;;;5079143;28;20458;-59
2022/10/10 12:09:43;;;;;;;2.43;2.23;;;;;;;;;;5112914;28;20441;-61
2022/10/10 12:12:14;;;;;;;3.90;2.47;;;;;;;;;;5115096;28;20492;-59
2022/10/10 12:14:44;;;;;;;2.13;2.03;;;;;;;;;;5094574;28;20478;-59
2022/10/10 12:17:20;;;;;;;3.20;2.20;;;;;;;;;;5074642;28;20450;-59
2022/10/10 12:19:48;;;;;;;2.58;2.25;;;;;;;;;;5076726;28;20238;-59
2022/10/10 12:22:22;;;;;;;6.23;2.10;;;;;;;;;;5073511;28;20192;-59
2022/10/10 12:25:21;;;;;;;3.40;2.40;;;;;;;;;;5076400;28;20451;-61
2022/10/10 12:28:01;;;;;;;3.97;2.37;;;;;;;;;;5088963;28;20458;-60
2022/10/10 12:30:28;;;;;;;3.70;2.23;;;;;;;;;;5073826;28;20461;-61
2022/10/10 12:32:57;;;;;;;5.40;2.47;;;;;;;;;;5089556;28;20454;-60
2022/10/10 12:35:28;;;;;;;5.23;2.67;;;;;;;;;;5094260;28;21185;-61
2022/10/10 12:38:07;;;;;;;2.93;2.53;;;;;;;;;;5076862;28;20471;-61
2022/10/10 12:40:35;;;;;;;4.40;2.40;;;;;;;;;;5090368;28;20452;-61
2022/10/10 12:43:04;;;;;;;3.53;2.43;;;;;;;;;;5087444;28;20950;-61
2022/10/10 12:45:50;;;;;;;2.67;2.47;;;;;;;;;;5073391;28;20466;-60
2022/10/10 12:48:20;;;;;;;3.57;2.30;;;;;;;;;;5086989;28;20465;-60
2022/10/10 12:50:55;;;;;;;3.90;2.20;;;;;;;;;;5092841;28;20456;-60
2022/10/10 12:53:23;;;;;;;7.40;2.67;;;;;;;;;;5093578;28;20439;-59
2022/10/10 12:55:51;;;;;;;5.63;3.08;;;;;;;;;;5094464;28;20538;-62
2022/10/10 12:58:20;;;;;;;4.90;3.60;;;;;;;;;;5087070;28;20248;-61
2022/10/10 13:00:48;;;;;;;5.43;2.50;;;;;;;;;;5072235;28;20457;-63
2022/10/10 13:03:18;;;;;;;3.60;2.83;;;;;;;;;;5072722;28;20462;-62
2022/10/10 13:05:47;;;;;;;4.43;2.70;;;;;;;;;;5078035;28;20264;-55
2022/10/10 13:08:17;;;;;;;3.93;2.87;;;;;;;;;;5101797;28;20459;-57
2022/10/10 13:10:54;;;;;;;3.23;2.40;;;;;;;;;;5078078;28;20459;-57
2022/10/10 13:13:21;;;;;;;3.57;2.13;;;;;;;;;;5084831;28;20809;-59
2022/10/10 13:15:52;;;;;;;3.67;2.60;;;;;;;;;;5093362;28;20451;-59
2022/10/10 13:18:34;;;;;;;5.73;2.27;;;;;;;;;;5089743;28;20524;-59
2022/10/10 13:21:03;;;;;;;3.27;2.10;;;;;;;;;;5090303;28;20455;-59
2022/10/10 13:23:29;;;;;;;3.93;2.17;;;;;;;;;;5093250;28;20468;-59
2022/10/10 13:25:56;;;;;;;3.80;2.30;;;;;;;;;;5093046;28;20439;-60
2022/10/10 13:28:23;;;;;;;3.03;2.43;;;;;;;;;;5093212;28;20450;-59
2022/10/10 13:30:51;;;;;;;3.08;2.70;;;;;;;;;;5092989;28;20478;-59
2022/10/10 13:33:19;;;;;;;5.53;2.40;;;;;;;;;;5093357;28;20283;-59
2022/10/10 13:35:46;;;;;;;3.90;3.10;;;;;;;;;;5092653;28;20538;-59
2022/10/10 13:38:15;;;;;;;4.53;2.37;;;;;;;;;;5093061;28;20470;-59
2022/10/10 13:40:43;;;;;;;2.63;2.30;;;;;;;;;;5093028;28;20466;-59
2022/10/10 13:43:12;;;;;;;8.23;2.67;;;;;;;;;;5093141;28;20533;-59
2022/10/10 13:45:44;;;;;;;4.30;2.57;;;;;;;;;;5092807;28;20466;-59
2022/10/10 13:48:17;;;;;;;4.20;2.37;;;;;;;;;;5092305;28;20997;-59
2022/10/10 13:50:51;;;;;;;4.30;2.73;;;;;;;;;;5090612;28;20447;-59
2022/10/10 13:53:31;;;;;;;2.83;2.60;;;;;;;;;;5092812;28;20456;-59
2022/10/10 13:55:59;;;;;;;4.50;2.60;;;;;;;;;;5092963;28;20446;-59
2022/10/10 13:58:26;;;;;;;2.77;2.47;;;;;;;;;;5092562;28;20472;-59
2022/10/10 14:00:57;;;;;;;8.10;2.40;;;;;;;;;;5092522;28;20452;-59
2022/10/10 14:03:24;;;;;;;2.87;2.67;;;;;;;;;;5090968;28;20457;-59
2022/10/10 14:05:51;;;;;;;3.13;2.83;;;;;;;;;;5093134;28;20446;-59
2022/10/10 14:08:20;;;;;;;5.03;3.10;;;;;;;;;;5092969;28;20457;-58
2022/10/10 14:10:57;;;;;;;6.10;2.97;;;;;;;;;;5092950;28;20829;-59
2022/10/10 14:13:24;;;;;;;6.27;2.53;;;;;;;;;;5092882;28;20544;-59
2022/10/10 14:15:51;;;;;;;3.10;2.10;;;;;;;;;;5092793;28;20541;-59
2022/10/10 14:18:20;;;;;;;2.70;2.50;;;;;;;;;;5092556;28;20581;-59
2022/10/10 14:20:47;;;;;;;2.63;2.00;;;;;;;;;;5092813;28;20480;-58
2022/10/10 14:23:14;;;;;;;3.30;2.40;;;;;;;;;;5092957;28;20541;-59
2022/10/10 14:25:42;;;;;;;2.97;2.17;;;;;;;;;;5092851;28;20449;-59
2022/10/10 14:28:15;;;;;;;2.90;2.37;;;;;;;;;;5092677;28;20442;-59
2022/10/10 14:30:42;;;;;;;2.67;2.20;;;;;;;;;;5092733;28;20833;-59
2022/10/10 14:33:11;;;;;;;6.37;2.50;;;;;;;;;;5092507;28;20478;-59
2022/10/10 14:35:38;;;;;;;2.93;2.33;;;;;;;;;;5092723;28;20443;-59
2022/10/10 14:38:06;;;;;;;4.30;3.13;;;;;;;;;;5092753;28;20447;-59
2022/10/10 14:40:33;;;;;;;4.13;2.40;;;;;;;;;;5092552;28;20503;-59
2022/10/10 14:43:00;;;;;;;2.10;2.00;;;;;;;;;;5092276;28;20447;-59
2022/10/10 14:45:28;;;;;;;4.70;2.50;;;;;;;;;;5092741;28;20447;-59
2022/10/10 14:47:55;;;;;;;8.77;3.50;;;;;;;;;;5095222;28;20562;-59
2022/10/10 14:50:24;;;;;;;3.53;2.50;;;;;;;;;;5096404;28;20446;-59